createdAt,value
2022-08-22T00:03:05.535Z,0
2022-08-22T00:07:10.265Z,0
2022-08-22T00:16:47.337Z,0
2022-08-22T00:36:01.647Z,0
2022-08-22T00:45:38.781Z,0
2022-08-22T00:55:15.561Z,0
2022-08-22T01:33:43.952Z,0
2022-08-22T01:43:21.016Z,0
2022-08-22T01:52:57.967Z,0
2022-08-22T02:02:34.439Z,0
2022-08-22T02:12:13.812Z,0
2022-08-22T02:21:48.531Z,0
2022-08-22T02:31:25.080Z,0
2022-08-22T02:41:01.629Z,0
2022-08-22T03:00:25.091Z,0
2022-08-22T03:09:52.006Z,0
2022-08-22T03:19:28.819Z,0
2022-08-22T03:29:05.865Z,0
2022-08-22T03:38:43.178Z,0
2022-08-22T03:48:20.012Z,1.67
2022-08-22T03:57:57.031Z,9.17
2022-08-22T04:07:33.818Z,30.83
2022-08-22T04:17:11.024Z,69.17
2022-08-22T04:26:48.339Z,118.33
2022-08-22T04:36:25.640Z,182.5
2022-08-22T04:46:02.643Z,267.5
2022-08-22T04:55:40.002Z,386.67
2022-08-22T05:05:17.596Z,492.5
2022-08-22T05:14:55.329Z,515
2022-08-22T05:24:32.220Z,620.83
2022-08-22T05:43:49.803Z,722.5
2022-08-22T06:03:03.149Z,817.5
2022-08-22T06:22:18.876Z,1069.17
2022-08-22T06:31:56.665Z,1217.5
2022-08-22T07:20:06.212Z,1955
2022-08-22T07:29:44.880Z,2169.17
2022-08-22T07:39:22.825Z,1845
2022-08-22T07:49:08.961Z,1625.83
2022-08-22T08:08:15.945Z,1720.83
2022-08-22T08:17:54.375Z,1806.67
2022-08-22T08:27:32.843Z,1988.33
2022-08-22T08:37:12.633Z,2155.83
2022-08-22T08:46:50.245Z,2019.17
2022-08-22T08:56:28.349Z,2206.67
2022-08-22T09:06:07.564Z,3425.83
2022-08-22T09:15:55.075Z,3898.33
2022-08-22T09:25:28.728Z,4130
2022-08-22T09:35:06.300Z,4635.83
2022-08-22T09:44:45.241Z,5250.83
2022-08-22T10:04:19.394Z,16717.5
2022-08-22T10:14:04.396Z,21855
2022-08-22T10:23:49.573Z,24662.5
2022-08-22T10:33:33.177Z,26525
2022-08-22T10:43:16.449Z,28036.67
2022-08-22T10:52:32.039Z,32425.83
2022-08-22T11:02:30.819Z,38540
2022-08-22T11:12:11.839Z,33247.5
2022-08-22T11:21:48.811Z,40548.33
2022-08-22T11:31:31.717Z,30487.5
2022-08-22T11:41:03.723Z,30380
2022-08-22T11:50:42.041Z,35025
2022-08-22T12:00:16.241Z,33600.83
2022-08-22T12:09:59.024Z,10130
2022-08-22T12:19:18.330Z,10015
2022-08-22T12:29:01.118Z,21445.83
2022-08-22T12:38:39.577Z,9832.5
2022-08-22T12:48:22.809Z,24734.17
2022-08-22T12:58:01.364Z,22740.83
2022-08-22T13:07:44.827Z,25728.33
2022-08-22T13:17:24.010Z,19898.33
2022-08-22T13:26:51.623Z,9445.83
2022-08-22T13:36:22.034Z,8110.83
2022-08-22T13:46:01.806Z,11516.67
2022-08-22T13:55:37.394Z,9076.67
2022-08-22T14:05:15.462Z,8583.33
2022-08-22T14:14:52.920Z,10717.5
2022-08-22T14:24:45.312Z,13325
2022-08-22T14:34:29.616Z,14184.17
2022-08-22T14:44:08.859Z,12649.17
2022-08-22T14:53:37.428Z,10613.33
2022-08-22T15:03:05.494Z,6358.33
2022-08-22T15:12:34.500Z,5090.83
2022-08-22T15:22:09.732Z,4475.83
2022-08-22T15:31:46.401Z,4371.67
2022-08-22T15:41:22.788Z,5030
2022-08-22T15:50:57.730Z,3572.5
2022-08-22T16:00:34.037Z,4021.67
2022-08-22T16:10:11.872Z,3881.67
2022-08-22T16:19:49.277Z,3874.17
2022-08-22T16:29:26.203Z,3628.33
2022-08-22T16:39:02.901Z,2509.17
2022-08-22T16:48:39.201Z,1924.17
2022-08-22T16:58:15.910Z,1635
2022-08-22T17:07:52.521Z,1450
2022-08-22T17:17:29.016Z,1364.17
2022-08-22T17:27:06.128Z,1138.33
2022-08-22T17:46:18.857Z,621.67
2022-08-22T18:05:32.249Z,215
2022-08-22T18:15:08.847Z,132.5
2022-08-22T18:24:45.542Z,62.5
2022-08-22T18:34:22.169Z,15.83
2022-08-22T18:43:58.412Z,4.17
2022-08-22T18:53:34.708Z,0.83
2022-08-22T19:12:48.241Z,0
2022-08-22T19:22:25.016Z,0
2022-08-22T19:41:38.264Z,0
2022-08-22T20:00:53.578Z,0
2022-08-22T20:10:28.947Z,0
2022-08-22T20:20:24.030Z,0
2022-08-22T20:29:42.861Z,0
2022-08-22T20:48:57.269Z,0
2022-08-22T20:58:34.619Z,0
2022-08-22T21:08:11.163Z,0
2022-08-22T21:17:48.206Z,0
2022-08-22T21:27:25.479Z,0
2022-08-22T21:37:02.320Z,0
2022-08-22T21:46:39.651Z,0
2022-08-22T21:56:16.613Z,0
2022-08-22T22:15:30.430Z,0
2022-08-22T22:25:39.437Z,0
2022-08-22T22:34:44.459Z,0
2022-08-22T22:44:21.614Z,0
2022-08-22T22:53:58.647Z,0
2022-08-22T23:03:35.816Z,0
2022-08-22T23:13:12.775Z,0
2022-08-22T23:22:49.909Z,0
2022-08-22T23:32:26.838Z,0
2022-08-22T23:42:03.708Z,0
2022-08-22T23:51:40.690Z,0
